sensor_id;sensor_type;location;lat;lon;timestamp;P1;durP1;ratioP1;P2;durP2;ratioP2
60239;SDS011;46102;39.012;-7.064;2023-07-31T10:35:39;5.78;;;2.58;;
60239;SDS011;46102;39.012;-7.064;2023-07-31T10:37:40;3.58;;;2.90;;
60239;SDS011;46102;39.012;-7.064;2023-07-31T10:39:42;7.53;;;2.88;;
60239;SDS011;46102;39.012;-7.064;2023-07-31T10:41:43;4.15;;;3.13;;
60239;SDS011;46102;39.012;-7.064;2023-07-31T10:43:45;7.38;;;2.75;;
60239;SDS011;46102;39.012;-7.064;2023-07-31T10:45:47;4.28;;;2.90;;
60239;SDS011;46102;39.012;-7.064;2023-07-31T10:47:49;4.53;;;3.05;;
60239;SDS011;46102;39.012;-7.064;2023-07-31T10:49:50;3.45;;;3.10;;
60239;SDS011;46102;39.012;-7.064;2023-07-31T10:51:50;6.20;;;3.17;;
60239;SDS011;46102;39.012;-7.064;2023-07-31T10:53:51;3.28;;;2.28;;
60239;SDS011;46102;39.012;-7.064;2023-07-31T10:56:11;7.00;;;3.15;;
60239;SDS011;46102;39.012;-7.064;2023-07-31T10:58:14;3.10;;;2.80;;
60239;SDS011;46102;39.012;-7.064;2023-07-31T11:02:26;5.07;;;3.10;;
60239;SDS011;46102;39.012;-7.064;2023-07-31T11:04:30;2.67;;;2.38;;
60239;SDS011;46102;39.012;-7.064;2023-07-31T11:06:33;2.92;;;2.72;;
60239;SDS011;46102;39.012;-7.064;2023-07-31T11:08:44;4.22;;;2.80;;
60239;SDS011;46102;39.012;-7.064;2023-07-31T11:10:48;3.47;;;2.85;;
60239;SDS011;46102;39.012;-7.064;2023-07-31T11:12:51;3.85;;;2.78;;
60239;SDS011;46102;39.012;-7.064;2023-07-31T11:14:54;6.28;;;2.88;;
60239;SDS011;46102;39.012;-7.064;2023-07-31T11:16:57;3.80;;;2.63;;
60239;SDS011;46102;39.012;-7.064;2023-07-31T11:18:57;3.60;;;2.78;;
60239;SDS011;46102;39.012;-7.064;2023-07-31T11:20:58;6.90;;;3.03;;
60239;SDS011;46102;39.012;-7.064;2023-07-31T11:23:00;5.25;;;3.00;;
60239;SDS011;46102;39.012;-7.064;2023-07-31T11:25:03;5.82;;;2.53;;
60239;SDS011;46102;39.012;-7.064;2023-07-31T11:27:07;4.88;;;3.03;;
60239;SDS011;46102;39.012;-7.064;2023-07-31T11:31:12;3.50;;;2.95;;
60239;SDS011;46102;39.012;-7.064;2023-07-31T11:33:13;5.65;;;2.45;;
60239;SDS011;46102;39.012;-7.064;2023-07-31T11:35:15;6.88;;;2.78;;
60239;SDS011;46102;39.012;-7.064;2023-07-31T11:37:16;6.82;;;2.72;;
60239;SDS011;46102;39.012;-7.064;2023-07-31T11:39:16;2.80;;;2.55;;
60239;SDS011;46102;39.012;-7.064;2023-07-31T11:41:17;4.35;;;2.53;;
60239;SDS011;46102;39.012;-7.064;2023-07-31T11:43:18;3.03;;;2.60;;
60239;SDS011;46102;39.012;-7.064;2023-07-31T11:45:20;3.13;;;2.83;;
60239;SDS011;46102;39.012;-7.064;2023-07-31T11:47:21;4.82;;;2.63;;
60239;SDS011;46102;39.012;-7.064;2023-07-31T11:49:22;6.10;;;2.63;;
60239;SDS011;46102;39.012;-7.064;2023-07-31T11:51:23;2.92;;;2.72;;
60239;SDS011;46102;39.012;-7.064;2023-07-31T11:53:25;4.18;;;2.60;;
60239;SDS011;46102;39.012;-7.064;2023-07-31T11:55:31;4.78;;;2.88;;
60239;SDS011;46102;39.012;-7.064;2023-07-31T11:57:32;4.15;;;2.45;;
60239;SDS011;46102;39.012;-7.064;2023-07-31T11:59:33;2.85;;;2.65;;
60239;SDS011;46102;39.012;-7.064;2023-07-31T12:01:35;3.38;;;2.47;;
60239;SDS011;46102;39.012;-7.064;2023-07-31T12:03:36;2.97;;;2.70;;
60239;SDS011;46102;39.012;-7.064;2023-07-31T12:05:37;4.97;;;2.50;;
60239;SDS011;46102;39.012;-7.064;2023-07-31T12:07:45;2.95;;;2.67;;
60239;SDS011;46102;39.012;-7.064;2023-07-31T12:09:54;4.53;;;2.58;;
60239;SDS011;46102;39.012;-7.064;2023-07-31T12:11:56;2.72;;;2.55;;
60239;SDS011;46102;39.012;-7.064;2023-07-31T12:13:56;3.22;;;3.03;;
60239;SDS011;46102;39.012;-7.064;2023-07-31T12:15:58;4.38;;;2.70;;
60239;SDS011;46102;39.012;-7.064;2023-07-31T12:18:05;5.80;;;2.60;;
60239;SDS011;46102;39.012;-7.064;2023-07-31T12:20:12;4.40;;;2.83;;
60239;SDS011;46102;39.012;-7.064;2023-07-31T12:22:13;2.78;;;2.28;;
60239;SDS011;46102;39.012;-7.064;2023-07-31T12:24:17;4.82;;;2.45;;
60239;SDS011;46102;39.012;-7.064;2023-07-31T12:26:19;5.70;;;2.72;;
60239;SDS011;46102;39.012;-7.064;2023-07-31T12:28:21;3.47;;;2.65;;
60239;SDS011;46102;39.012;-7.064;2023-07-31T12:30:29;6.25;;;2.92;;
60239;SDS011;46102;39.012;-7.064;2023-07-31T12:32:33;2.85;;;2.65;;
60239;SDS011;46102;39.012;-7.064;2023-07-31T12:34:35;2.92;;;2.40;;
60239;SDS011;46102;39.012;-7.064;2023-07-31T12:36:43;2.60;;;2.50;;
60239;SDS011;46102;39.012;-7.064;2023-07-31T12:38:44;4.03;;;2.58;;
60239;SDS011;46102;39.012;-7.064;2023-07-31T12:40:45;6.63;;;2.85;;
60239;SDS011;46102;39.012;-7.064;2023-07-31T12:42:46;4.85;;;2.78;;
60239;SDS011;46102;39.012;-7.064;2023-07-31T12:44:47;3.25;;;2.92;;
60239;SDS011;46102;39.012;-7.064;2023-07-31T12:46:48;2.50;;;2.30;;
60239;SDS011;46102;39.012;-7.064;2023-07-31T12:48:49;3.55;;;2.70;;
60239;SDS011;46102;39.012;-7.064;2023-07-31T12:50:50;3.50;;;3.20;;
60239;SDS011;46102;39.012;-7.064;2023-07-31T12:52:51;3.25;;;2.85;;
60239;SDS011;46102;39.012;-7.064;2023-07-31T12:54:53;3.00;;;2.77;;
60239;SDS011;46102;39.012;-7.064;2023-07-31T12:56:54;2.80;;;2.63;;
60239;SDS011;46102;39.012;-7.064;2023-07-31T12:58:55;6.25;;;2.60;;
60239;SDS011;46102;39.012;-7.064;2023-07-31T13:00:56;3.08;;;2.70;;
60239;SDS011;46102;39.012;-7.064;2023-07-31T13:02:56;3.17;;;2.88;;
60239;SDS011;46102;39.012;-7.064;2023-07-31T13:04:57;3.15;;;2.70;;
60239;SDS011;46102;39.012;-7.064;2023-07-31T13:06:58;3.90;;;2.47;;
60239;SDS011;46102;39.012;-7.064;2023-07-31T13:08:59;3.35;;;2.60;;
60239;SDS011;46102;39.012;-7.064;2023-07-31T13:11:00;5.57;;;2.88;;
60239;SDS011;46102;39.012;-7.064;2023-07-31T13:13:01;2.45;;;2.35;;
60239;SDS011;46102;39.012;-7.064;2023-07-31T13:15:02;2.97;;;2.67;;
60239;SDS011;46102;39.012;-7.064;2023-07-31T13:17:04;4.25;;;3.20;;
60239;SDS011;46102;39.012;-7.064;2023-07-31T13:19:05;2.92;;;2.65;;
60239;SDS011;46102;39.012;-7.064;2023-07-31T13:21:06;3.03;;;2.83;;
60239;SDS011;46102;39.012;-7.064;2023-07-31T13:23:07;14.60;;;2.97;;
60239;SDS011;46102;39.012;-7.064;2023-07-31T13:25:08;3.05;;;2.78;;
60239;SDS011;46102;39.012;-7.064;2023-07-31T13:27:10;3.22;;;2.45;;
60239;SDS011;46102;39.012;-7.064;2023-07-31T13:29:11;3.35;;;2.50;;
60239;SDS011;46102;39.012;-7.064;2023-07-31T13:31:12;2.78;;;2.58;;
60239;SDS011;46102;39.012;-7.064;2023-07-31T13:33:12;3.58;;;2.95;;
60239;SDS011;46102;39.012;-7.064;2023-07-31T13:35:13;5.03;;;2.70;;
60239;SDS011;46102;39.012;-7.064;2023-07-31T13:37:14;3.22;;;2.75;;
60239;SDS011;46102;39.012;-7.064;2023-07-31T13:39:15;4.95;;;2.72;;
60239;SDS011;46102;39.012;-7.064;2023-07-31T13:41:16;3.42;;;2.40;;
60239;SDS011;46102;39.012;-7.064;2023-07-31T13:43:17;2.70;;;2.50;;
60239;SDS011;46102;39.012;-7.064;2023-07-31T13:45:17;2.72;;;2.53;;
60239;SDS011;46102;39.012;-7.064;2023-07-31T13:47:18;2.80;;;2.60;;
60239;SDS011;46102;39.012;-7.064;2023-07-31T13:49:19;2.75;;;2.53;;
60239;SDS011;46102;39.012;-7.064;2023-07-31T13:51:20;3.50;;;3.00;;
60239;SDS011;46102;39.012;-7.064;2023-07-31T13:53:21;2.60;;;2.40;;
60239;SDS011;46102;39.012;-7.064;2023-07-31T13:55:21;5.93;;;3.00;;
60239;SDS011;46102;39.012;-7.064;2023-07-31T13:57:22;3.50;;;2.70;;
60239;SDS011;46102;39.012;-7.064;2023-07-31T13:59:23;3.30;;;2.72;;
60239;SDS011;46102;39.012;-7.064;2023-07-31T14:01:24;4.55;;;3.00;;
60239;SDS011;46102;39.012;-7.064;2023-07-31T14:03:25;3.05;;;2.83;;
60239;SDS011;46102;39.012;-7.064;2023-07-31T14:05:26;2.58;;;2.38;;
60239;SDS011;46102;39.012;-7.064;2023-07-31T14:07:26;2.75;;;2.30;;
60239;SDS011;46102;39.012;-7.064;2023-07-31T14:09:27;3.50;;;2.92;;
60239;SDS011;46102;39.012;-7.064;2023-07-31T14:11:30;3.10;;;2.58;;
60239;SDS011;46102;39.012;-7.064;2023-07-31T14:13:31;4.50;;;3.03;;
60239;SDS011;46102;39.012;-7.064;2023-07-31T14:15:32;6.55;;;3.17;;
60239;SDS011;46102;39.012;-7.064;2023-07-31T14:17:36;2.80;;;2.60;;
60239;SDS011;46102;39.012;-7.064;2023-07-31T14:19:37;5.00;;;2.50;;
60239;SDS011;46102;39.012;-7.064;2023-07-31T14:21:38;5.35;;;2.42;;
60239;SDS011;46102;39.012;-7.064;2023-07-31T14:23:39;3.88;;;2.92;;
60239;SDS011;46102;39.012;-7.064;2023-07-31T14:25:41;3.42;;;2.58;;
60239;SDS011;46102;39.012;-7.064;2023-07-31T14:27:42;4.90;;;2.90;;
60239;SDS011;46102;39.012;-7.064;2023-07-31T14:29:42;4.43;;;2.65;;
60239;SDS011;46102;39.012;-7.064;2023-07-31T14:31:43;2.97;;;2.55;;
60239;SDS011;46102;39.012;-7.064;2023-07-31T14:33:45;2.50;;;2.30;;
60239;SDS011;46102;39.012;-7.064;2023-07-31T14:35:46;5.85;;;2.67;;
60239;SDS011;46102;39.012;-7.064;2023-07-31T14:37:47;2.78;;;2.58;;
60239;SDS011;46102;39.012;-7.064;2023-07-31T14:39:47;4.20;;;2.30;;
60239;SDS011;46102;39.012;-7.064;2023-07-31T14:41:50;2.97;;;2.60;;
60239;SDS011;46102;39.012;-7.064;2023-07-31T14:43:50;2.88;;;2.63;;
60239;SDS011;46102;39.012;-7.064;2023-07-31T14:45:51;4.15;;;2.55;;
60239;SDS011;46102;39.012;-7.064;2023-07-31T14:47:53;4.00;;;2.83;;
60239;SDS011;46102;39.012;-7.064;2023-07-31T14:49:54;6.20;;;3.03;;
60239;SDS011;46102;39.012;-7.064;2023-07-31T14:51:55;3.38;;;2.40;;
60239;SDS011;46102;39.012;-7.064;2023-07-31T14:53:56;4.05;;;2.75;;
60239;SDS011;46102;39.012;-7.064;2023-07-31T14:55:56;2.90;;;2.70;;
60239;SDS011;46102;39.012;-7.064;2023-07-31T14:57:57;5.68;;;2.42;;
60239;SDS011;46102;39.012;-7.064;2023-07-31T14:59:58;3.38;;;3.08;;
60239;SDS011;46102;39.012;-7.064;2023-07-31T15:01:59;2.72;;;2.50;;
60239;SDS011;46102;39.012;-7.064;2023-07-31T15:04:00;3.33;;;2.28;;
60239;SDS011;46102;39.012;-7.064;2023-07-31T15:06:01;2.95;;;2.75;;
60239;SDS011;46102;39.012;-7.064;2023-07-31T15:08:05;3.20;;;2.95;;
60239;SDS011;46102;39.012;-7.064;2023-07-31T15:10:06;4.75;;;2.63;;
60239;SDS011;46102;39.012;-7.064;2023-07-31T15:12:07;2.63;;;2.40;;
60239;SDS011;46102;39.012;-7.064;2023-07-31T15:14:08;3.83;;;2.50;;
60239;SDS011;46102;39.012;-7.064;2023-07-31T15:16:09;4.78;;;2.92;;
60239;SDS011;46102;39.012;-7.064;2023-07-31T15:18:10;5.57;;;2.60;;
60239;SDS011;46102;39.012;-7.064;2023-07-31T15:20:11;4.13;;;2.55;;
60239;SDS011;46102;39.012;-7.064;2023-07-31T15:22:12;5.07;;;2.83;;
60239;SDS011;46102;39.012;-7.064;2023-07-31T15:24:13;8.00;;;3.08;;
60239;SDS011;46102;39.012;-7.064;2023-07-31T15:26:14;2.90;;;2.60;;
60239;SDS011;46102;39.012;-7.064;2023-07-31T15:28:15;3.08;;;2.42;;
60239;SDS011;46102;39.012;-7.064;2023-07-31T15:30:16;2.40;;;2.22;;
60239;SDS011;46102;39.012;-7.064;2023-07-31T15:32:16;5.25;;;2.55;;
60239;SDS011;46102;39.012;-7.064;2023-07-31T15:34:18;6.35;;;2.67;;
60239;SDS011;46102;39.012;-7.064;2023-07-31T15:36:19;3.80;;;2.80;;
60239;SDS011;46102;39.012;-7.064;2023-07-31T15:38:20;4.32;;;2.60;;
60239;SDS011;46102;39.012;-7.064;2023-07-31T15:40:20;6.63;;;2.60;;
60239;SDS011;46102;39.012;-7.064;2023-07-31T15:42:21;4.18;;;2.90;;
60239;SDS011;46102;39.012;-7.064;2023-07-31T15:44:22;5.35;;;2.63;;
60239;SDS011;46102;39.012;-7.064;2023-07-31T15:46:23;2.90;;;2.60;;
60239;SDS011;46102;39.012;-7.064;2023-07-31T15:48:24;6.55;;;2.92;;
60239;SDS011;46102;39.012;-7.064;2023-07-31T15:50:24;2.60;;;2.30;;
60239;SDS011;46102;39.012;-7.064;2023-07-31T15:52:25;3.75;;;2.75;;
60239;SDS011;46102;39.012;-7.064;2023-07-31T15:54:26;5.63;;;2.53;;
60239;SDS011;46102;39.012;-7.064;2023-07-31T15:56:30;3.97;;;2.15;;
60239;SDS011;46102;39.012;-7.064;2023-07-31T15:58:31;3.70;;;2.40;;
60239;SDS011;46102;39.012;-7.064;2023-07-31T16:00:33;2.60;;;2.40;;
60239;SDS011;46102;39.012;-7.064;2023-07-31T16:02:34;3.35;;;2.50;;
60239;SDS011;46102;39.012;-7.064;2023-07-31T16:04:35;2.72;;;2.28;;
60239;SDS011;46102;39.012;-7.064;2023-07-31T16:06:36;2.28;;;2.17;;
60239;SDS011;46102;39.012;-7.064;2023-07-31T16:08:37;3.35;;;2.63;;
60239;SDS011;46102;39.012;-7.064;2023-07-31T16:10:41;2.42;;;2.20;;
60239;SDS011;46102;39.012;-7.064;2023-07-31T16:12:42;4.43;;;2.20;;
60239;SDS011;46102;39.012;-7.064;2023-07-31T16:14:43;2.50;;;2.30;;
60239;SDS011;46102;39.012;-7.064;2023-07-31T16:16:44;4.28;;;2.30;;
60239;SDS011;46102;39.012;-7.064;2023-07-31T16:18:46;4.97;;;2.42;;
60239;SDS011;46102;39.012;-7.064;2023-07-31T16:20:47;3.55;;;2.22;;
60239;SDS011;46102;39.012;-7.064;2023-07-31T16:22:48;5.82;;;2.30;;
60239;SDS011;46102;39.012;-7.064;2023-07-31T16:24:49;5.82;;;2.20;;
60239;SDS011;46102;39.012;-7.064;2023-07-31T16:26:51;3.15;;;2.05;;
60239;SDS011;46102;39.012;-7.064;2023-07-31T16:28:52;3.85;;;1.85;;
60239;SDS011;46102;39.012;-7.064;2023-07-31T16:30:53;2.63;;;2.13;;
60239;SDS011;46102;39.012;-7.064;2023-07-31T16:32:54;2.50;;;2.05;;
60239;SDS011;46102;39.012;-7.064;2023-07-31T16:34:55;2.10;;;1.90;;
60239;SDS011;46102;39.012;-7.064;2023-07-31T16:36:56;4.57;;;2.50;;
60239;SDS011;46102;39.012;-7.064;2023-07-31T16:38:57;3.00;;;2.15;;
60239;SDS011;46102;39.012;-7.064;2023-07-31T16:40:58;5.53;;;2.00;;
60239;SDS011;46102;39.012;-7.064;2023-07-31T16:42:59;2.88;;;1.83;;
60239;SDS011;46102;39.012;-7.064;2023-07-31T16:45:00;2.78;;;1.92;;
60239;SDS011;46102;39.012;-7.064;2023-07-31T16:47:01;4.28;;;2.20;;
60239;SDS011;46102;39.012;-7.064;2023-07-31T16:49:02;2.55;;;1.80;;
60239;SDS011;46102;39.012;-7.064;2023-07-31T16:51:04;1.83;;;1.73;;
60239;SDS011;46102;39.012;-7.064;2023-07-31T16:53:05;3.80;;;2.70;;
60239;SDS011;46102;39.012;-7.064;2023-07-31T16:55:06;2.08;;;1.90;;
60239;SDS011;46102;39.012;-7.064;2023-07-31T16:57:07;4.70;;;1.90;;
60239;SDS011;46102;39.012;-7.064;2023-07-31T16:59:08;3.33;;;2.17;;
60239;SDS011;46102;39.012;-7.064;2023-07-31T17:01:08;1.83;;;1.70;;
60239;SDS011;46102;39.012;-7.064;2023-07-31T17:03:09;6.50;;;1.95;;
60239;SDS011;46102;39.012;-7.064;2023-07-31T17:05:10;2.63;;;2.05;;
60239;SDS011;46102;39.012;-7.064;2023-07-31T17:07:11;4.20;;;2.05;;
60239;SDS011;46102;39.012;-7.064;2023-07-31T17:09:13;7.82;;;2.30;;
60239;SDS011;46102;39.012;-7.064;2023-07-31T17:11:14;3.17;;;2.05;;
60239;SDS011;46102;39.012;-7.064;2023-07-31T17:13:15;3.50;;;2.10;;
60239;SDS011;46102;39.012;-7.064;2023-07-31T17:15:15;3.90;;;1.85;;
60239;SDS011;46102;39.012;-7.064;2023-07-31T17:17:17;5.25;;;2.67;;
60239;SDS011;46102;39.012;-7.064;2023-07-31T17:19:17;2.47;;;2.05;;
60239;SDS011;46102;39.012;-7.064;2023-07-31T17:21:18;3.50;;;1.73;;
60239;SDS011;46102;39.012;-7.064;2023-07-31T17:23:19;3.90;;;2.40;;
60239;SDS011;46102;39.012;-7.064;2023-07-31T17:25:20;5.28;;;2.47;;
60239;SDS011;46102;39.012;-7.064;2023-07-31T17:27:20;2.10;;;2.00;;
60239;SDS011;46102;39.012;-7.064;2023-07-31T17:29:27;2.20;;;2.00;;
60239;SDS011;46102;39.012;-7.064;2023-07-31T17:31:29;2.38;;;2.17;;
60239;SDS011;46102;39.012;-7.064;2023-07-31T17:33:30;3.15;;;2.08;;
60239;SDS011;46102;39.012;-7.064;2023-07-31T17:35:31;9.05;;;2.67;;
60239;SDS011;46102;39.012;-7.064;2023-07-31T17:37:32;4.28;;;2.20;;
60239;SDS011;46102;39.012;-7.064;2023-07-31T17:39:33;3.63;;;2.10;;
60239;SDS011;46102;39.012;-7.064;2023-07-31T17:41:34;5.60;;;2.58;;
60239;SDS011;46102;39.012;-7.064;2023-07-31T17:43:35;5.32;;;1.90;;
60239;SDS011;46102;39.012;-7.064;2023-07-31T17:45:35;4.95;;;2.95;;
60239;SDS011;46102;39.012;-7.064;2023-07-31T17:47:36;7.78;;;2.25;;
60239;SDS011;46102;39.012;-7.064;2023-07-31T17:49:37;2.40;;;2.20;;
60239;SDS011;46102;39.012;-7.064;2023-07-31T17:51:38;4.70;;;2.40;;
60239;SDS011;46102;39.012;-7.064;2023-07-31T17:53:40;3.70;;;2.38;;
60239;SDS011;46102;39.012;-7.064;2023-07-31T17:55:41;4.25;;;2.20;;
60239;SDS011;46102;39.012;-7.064;2023-07-31T17:57:42;2.95;;;2.63;;
60239;SDS011;46102;39.012;-7.064;2023-07-31T17:59:42;3.30;;;1.88;;
60239;SDS011;46102;39.012;-7.064;2023-07-31T18:01:45;4.60;;;2.33;;
60239;SDS011;46102;39.012;-7.064;2023-07-31T18:03:45;3.88;;;2.25;;
60239;SDS011;46102;39.012;-7.064;2023-07-31T18:05:46;2.58;;;2.08;;
60239;SDS011;46102;39.012;-7.064;2023-07-31T18:07:47;5.32;;;2.47;;
60239;SDS011;46102;39.012;-7.064;2023-07-31T18:09:48;3.65;;;2.53;;
60239;SDS011;46102;39.012;-7.064;2023-07-31T18:11:48;2.60;;;1.90;;
60239;SDS011;46102;39.012;-7.064;2023-07-31T18:13:49;2.25;;;2.00;;
60239;SDS011;46102;39.012;-7.064;2023-07-31T18:15:50;3.33;;;2.33;;
60239;SDS011;46102;39.012;-7.064;2023-07-31T18:17:51;2.88;;;2.42;;
60239;SDS011;46102;39.012;-7.064;2023-07-31T18:19:52;2.60;;;2.05;;
60239;SDS011;46102;39.012;-7.064;2023-07-31T18:21:53;6.07;;;1.92;;
60239;SDS011;46102;39.012;-7.064;2023-07-31T18:23:54;6.65;;;2.45;;
60239;SDS011;46102;39.012;-7.064;2023-07-31T18:25:54;3.20;;;2.15;;
60239;SDS011;46102;39.012;-7.064;2023-07-31T18:27:55;3.45;;;2.05;;
60239;SDS011;46102;39.012;-7.064;2023-07-31T18:29:56;2.05;;;1.80;;
60239;SDS011;46102;39.012;-7.064;2023-07-31T18:31:57;5.00;;;2.03;;
60239;SDS011;46102;39.012;-7.064;2023-07-31T18:33:57;4.97;;;2.10;;
60239;SDS011;46102;39.012;-7.064;2023-07-31T18:35:58;1.90;;;1.80;;
60239;SDS011;46102;39.012;-7.064;2023-07-31T18:38:03;2.88;;;1.98;;
60239;SDS011;46102;39.012;-7.064;2023-07-31T18:40:04;5.68;;;2.25;;
60239;SDS011;46102;39.012;-7.064;2023-07-31T18:42:05;2.88;;;1.73;;
60239;SDS011;46102;39.012;-7.064;2023-07-31T18:44:07;2.47;;;2.20;;
60239;SDS011;46102;39.012;-7.064;2023-07-31T18:46:07;6.60;;;2.25;;
60239;SDS011;46102;39.012;-7.064;2023-07-31T18:48:08;5.32;;;1.85;;
60239;SDS011;46102;39.012;-7.064;2023-07-31T18:50:09;9.63;;;2.03;;
60239;SDS011;46102;39.012;-7.064;2023-07-31T18:52:10;2.10;;;1.90;;
60239;SDS011;46102;39.012;-7.064;2023-07-31T18:54:10;2.38;;;2.05;;
60239;SDS011;46102;39.012;-7.064;2023-07-31T18:56:11;3.17;;;1.90;;
60239;SDS011;46102;39.012;-7.064;2023-07-31T18:58:12;1.88;;;1.75;;
60239;SDS011;46102;39.012;-7.064;2023-07-31T19:00:13;4.53;;;2.00;;
60239;SDS011;46102;39.012;-7.064;2023-07-31T19:02:14;2.10;;;2.00;;
60239;SDS011;46102;39.012;-7.064;2023-07-31T19:04:14;2.03;;;1.92;;
60239;SDS011;46102;39.012;-7.064;2023-07-31T19:06:15;8.02;;;2.03;;
60239;SDS011;46102;39.012;-7.064;2023-07-31T19:08:16;2.80;;;1.75;;
60239;SDS011;46102;39.012;-7.064;2023-07-31T19:10:17;2.20;;;2.00;;
60239;SDS011;46102;39.012;-7.064;2023-07-31T19:12:18;3.42;;;2.40;;
60239;SDS011;46102;39.012;-7.064;2023-07-31T19:14:19;4.60;;;2.40;;
60239;SDS011;46102;39.012;-7.064;2023-07-31T19:16:19;6.38;;;2.92;;
60239;SDS011;46102;39.012;-7.064;2023-07-31T19:18:20;3.10;;;2.90;;
60239;SDS011;46102;39.012;-7.064;2023-07-31T19:20:21;5.75;;;3.08;;
60239;SDS011;46102;39.012;-7.064;2023-07-31T19:22:22;2.95;;;2.70;;
60239;SDS011;46102;39.012;-7.064;2023-07-31T19:24:22;6.55;;;3.10;;
60239;SDS011;46102;39.012;-7.064;2023-07-31T19:26:24;3.40;;;3.20;;
60239;SDS011;46102;39.012;-7.064;2023-07-31T19:28:24;3.50;;;3.25;;
60239;SDS011;46102;39.012;-7.064;2023-07-31T19:30:25;4.97;;;3.97;;
60239;SDS011;46102;39.012;-7.064;2023-07-31T19:32:27;7.63;;;3.83;;
60239;SDS011;46102;39.012;-7.064;2023-07-31T19:34:28;4.20;;;3.53;;
60239;SDS011;46102;39.012;-7.064;2023-07-31T19:36:29;4.32;;;3.60;;
60239;SDS011;46102;39.012;-7.064;2023-07-31T19:38:29;3.30;;;3.08;;
60239;SDS011;46102;39.012;-7.064;2023-07-31T19:40:30;3.05;;;2.85;;
60239;SDS011;46102;39.012;-7.064;2023-07-31T19:42:31;2.63;;;2.33;;
60239;SDS011;46102;39.012;-7.064;2023-07-31T19:44:35;2.97;;;2.78;;
60239;SDS011;46102;39.012;-7.064;2023-07-31T19:46:36;10.80;;;3.25;;
60239;SDS011;46102;39.012;-7.064;2023-07-31T19:48:37;5.93;;;2.45;;
60239;SDS011;46102;39.012;-7.064;2023-07-31T19:50:38;3.35;;;2.42;;
60239;SDS011;46102;39.012;-7.064;2023-07-31T19:52:39;6.18;;;2.47;;
60239;SDS011;46102;39.012;-7.064;2023-07-31T19:54:41;3.40;;;1.90;;
60239;SDS011;46102;39.012;-7.064;2023-07-31T19:56:42;4.93;;;1.80;;
60239;SDS011;46102;39.012;-7.064;2023-07-31T19:58:43;4.22;;;1.85;;
60239;SDS011;46102;39.012;-7.064;2023-07-31T20:00:43;4.43;;;2.00;;
60239;SDS011;46102;39.012;-7.064;2023-07-31T20:02:44;8.15;;;2.30;;
60239;SDS011;46102;39.012;-7.064;2023-07-31T20:04:45;5.18;;;2.45;;
60239;SDS011;46102;39.012;-7.064;2023-07-31T20:06:46;3.95;;;1.70;;
60239;SDS011;46102;39.012;-7.064;2023-07-31T20:08:46;5.57;;;2.05;;
60239;SDS011;46102;39.012;-7.064;2023-07-31T20:10:47;5.22;;;2.08;;
60239;SDS011;46102;39.012;-7.064;2023-07-31T20:12:48;3.75;;;1.73;;
60239;SDS011;46102;39.012;-7.064;2023-07-31T20:14:49;1.58;;;1.48;;
60239;SDS011;46102;39.012;-7.064;2023-07-31T20:16:50;11.80;;;1.73;;
60239;SDS011;46102;39.012;-7.064;2023-07-31T20:18:51;3.20;;;1.77;;
60239;SDS011;46102;39.012;-7.064;2023-07-31T20:20:51;5.93;;;1.75;;
60239;SDS011;46102;39.012;-7.064;2023-07-31T20:22:52;4.60;;;1.70;;
60239;SDS011;46102;39.012;-7.064;2023-07-31T20:24:53;4.03;;;1.77;;
60239;SDS011;46102;39.012;-7.064;2023-07-31T20:26:54;4.95;;;1.52;;
60239;SDS011;46102;39.012;-7.064;2023-07-31T20:28:54;3.45;;;1.83;;
60239;SDS011;46102;39.012;-7.064;2023-07-31T20:30:55;1.70;;;1.60;;
60239;SDS011;46102;39.012;-7.064;2023-07-31T20:32:56;2.83;;;1.65;;
60239;SDS011;46102;39.012;-7.064;2023-07-31T20:34:57;4.95;;;1.90;;
60239;SDS011;46102;39.012;-7.064;2023-07-31T20:36:57;6.25;;;1.75;;
60239;SDS011;46102;39.012;-7.064;2023-07-31T20:38:58;1.70;;;1.60;;
60239;SDS011;46102;39.012;-7.064;2023-07-31T20:40:59;3.38;;;1.50;;
60239;SDS011;46102;39.012;-7.064;2023-07-31T20:43:00;1.77;;;1.67;;
60239;SDS011;46102;39.012;-7.064;2023-07-31T20:45:01;2.05;;;1.60;;
60239;SDS011;46102;39.012;-7.064;2023-07-31T20:47:01;2.60;;;1.42;;
60239;SDS011;46102;39.012;-7.064;2023-07-31T20:49:02;3.05;;;1.55;;
60239;SDS011;46102;39.012;-7.064;2023-07-31T20:51:03;3.60;;;1.90;;
60239;SDS011;46102;39.012;-7.064;2023-07-31T20:53:04;2.13;;;1.63;;
60239;SDS011;46102;39.012;-7.064;2023-07-31T20:55:05;2.20;;;1.55;;
60239;SDS011;46102;39.012;-7.064;2023-07-31T20:57:06;3.05;;;1.60;;
60239;SDS011;46102;39.012;-7.064;2023-07-31T20:59:07;4.88;;;1.30;;
60239;SDS011;46102;39.012;-7.064;2023-07-31T21:01:08;2.65;;;1.83;;
60239;SDS011;46102;39.012;-7.064;2023-07-31T21:03:09;3.20;;;1.40;;
60239;SDS011;46102;39.012;-7.064;2023-07-31T21:05:10;1.80;;;1.70;;
60239;SDS011;46102;39.012;-7.064;2023-07-31T21:07:11;12.25;;;1.75;;
60239;SDS011;46102;39.012;-7.064;2023-07-31T21:09:15;1.58;;;1.40;;
60239;SDS011;46102;39.012;-7.064;2023-07-31T21:11:16;5.05;;;1.75;;
60239;SDS011;46102;39.012;-7.064;2023-07-31T21:13:17;2.40;;;1.60;;
60239;SDS011;46102;39.012;-7.064;2023-07-31T21:15:18;1.58;;;1.48;;
60239;SDS011;46102;39.012;-7.064;2023-07-31T21:17:19;3.05;;;1.67;;
60239;SDS011;46102;39.012;-7.064;2023-07-31T21:19:20;1.42;;;1.33;;
60239;SDS011;46102;39.012;-7.064;2023-07-31T21:21:21;1.80;;;1.40;;
60239;SDS011;46102;39.012;-7.064;2023-07-31T21:23:22;1.73;;;1.63;;
60239;SDS011;46102;39.012;-7.064;2023-07-31T21:25:22;2.08;;;1.40;;
60239;SDS011;46102;39.012;-7.064;2023-07-31T21:27:23;1.60;;;1.50;;
60239;SDS011;46102;39.012;-7.064;2023-07-31T21:29:24;1.27;;;1.17;;
60239;SDS011;46102;39.012;-7.064;2023-07-31T21:31:25;1.27;;;1.17;;
60239;SDS011;46102;39.012;-7.064;2023-07-31T21:33:25;2.35;;;1.20;;
60239;SDS011;46102;39.012;-7.064;2023-07-31T21:35:26;2.03;;;1.13;;
60239;SDS011;46102;39.012;-7.064;2023-07-31T21:37:27;4.20;;;1.27;;
60239;SDS011;46102;39.012;-7.064;2023-07-31T21:39:28;1.40;;;1.20;;
60239;SDS011;46102;39.012;-7.064;2023-07-31T21:41:28;1.30;;;1.20;;
60239;SDS011;46102;39.012;-7.064;2023-07-31T21:43:29;7.88;;;1.50;;
60239;SDS011;46102;39.012;-7.064;2023-07-31T21:45:30;3.55;;;1.33;;
60239;SDS011;46102;39.012;-7.064;2023-07-31T21:47:31;3.53;;;1.65;;
60239;SDS011;46102;39.012;-7.064;2023-07-31T21:49:32;1.17;;;1.08;;
60239;SDS011;46102;39.012;-7.064;2023-07-31T21:51:32;3.72;;;1.33;;
60239;SDS011;46102;39.012;-7.064;2023-07-31T21:53:33;4.28;;;1.17;;
60239;SDS011;46102;39.012;-7.064;2023-07-31T21:55:34;1.88;;;1.02;;
60239;SDS011;46102;39.012;-7.064;2023-07-31T21:57:35;5.97;;;1.27;;
60239;SDS011;46102;39.012;-7.064;2023-07-31T21:59:36;4.03;;;1.13;;
60239;SDS011;46102;39.012;-7.064;2023-07-31T22:01:38;3.78;;;1.02;;
60239;SDS011;46102;39.012;-7.064;2023-07-31T22:03:39;1.48;;;1.02;;
60239;SDS011;46102;39.012;-7.064;2023-07-31T22:05:40;0.95;;;0.95;;
60239;SDS011;46102;39.012;-7.064;2023-07-31T22:07:41;1.15;;;1.00;;
60239;SDS011;46102;39.012;-7.064;2023-07-31T22:09:42;1.30;;;1.20;;
60239;SDS011;46102;39.012;-7.064;2023-07-31T22:11:43;1.80;;;1.13;;
60239;SDS011;46102;39.012;-7.064;2023-07-31T22:13:43;2.58;;;1.60;;
60239;SDS011;46102;39.012;-7.064;2023-07-31T22:15:44;8.13;;;1.30;;
60239;SDS011;46102;39.012;-7.064;2023-07-31T22:17:45;1.15;;;0.98;;
60239;SDS011;46102;39.012;-7.064;2023-07-31T22:19:46;2.53;;;1.08;;
60239;SDS011;46102;39.012;-7.064;2023-07-31T22:21:46;1.77;;;1.30;;
60239;SDS011;46102;39.012;-7.064;2023-07-31T22:23:47;4.78;;;0.85;;
60239;SDS011;46102;39.012;-7.064;2023-07-31T22:25:48;3.53;;;1.27;;
60239;SDS011;46102;39.012;-7.064;2023-07-31T22:27:49;2.97;;;1.30;;
60239;SDS011;46102;39.012;-7.064;2023-07-31T22:29:51;4.25;;;1.40;;
60239;SDS011;46102;39.012;-7.064;2023-07-31T22:31:51;1.40;;;1.30;;
60239;SDS011;46102;39.012;-7.064;2023-07-31T22:33:52;1.50;;;1.40;;
60239;SDS011;46102;39.012;-7.064;2023-07-31T22:35:53;1.50;;;1.40;;
60239;SDS011;46102;39.012;-7.064;2023-07-31T22:37:54;1.30;;;1.20;;